Time;durP1;ratioP1;P1;durP2;ratioP2;P2;SDS_P1;SDS_P2;PMS_P1;PMS_P2;Temp;Humidity;BMP_temperature;BMP_pressure;BME280_temperature;BME280_humidity;BME280_pressure;Samples;Min_cycle;Max_cycle;Signal;HPM_P1;HPM_P2
2021/01/28 00:00:41;;;;;;;18.17;12.60;;;-0.80;96.70;;;;;;5110292;28;20512;-78
2021/01/28 00:03:08;;;;;;;18.88;12.25;;;-0.80;96.80;;;;;;5110474;28;20180;-78
2021/01/28 00:05:36;;;;;;;19.52;12.50;;;-0.90;96.80;;;;;;5110088;28;20212;-78
2021/01/28 00:08:03;;;;;;;18.25;12.30;;;-0.80;96.80;;;;;;5109010;27;20563;-78
2021/01/28 00:10:31;;;;;;;21.35;13.25;;;-0.80;96.50;;;;;;5108962;28;20624;-78
2021/01/28 00:12:58;;;;;;;17.58;12.57;;;-0.80;96.50;;;;;;5110116;28;20249;-78
2021/01/28 00:15:25;;;;;;;18.35;12.27;;;-0.80;96.90;;;;;;5110442;28;20172;-78
2021/01/28 00:17:51;;;;;;;18.38;12.85;;;-0.80;96.70;;;;;;5110085;28;20180;-78
2021/01/28 00:20:22;;;;;;;18.83;11.60;;;-0.80;96.70;;;;;;5110370;28;20727;-78
2021/01/28 00:22:48;;;;;;;18.98;11.88;;;-0.90;96.80;;;;;;5109756;28;20632;-78
2021/01/28 00:25:16;;;;;;;20.55;12.50;;;-0.80;96.60;;;;;;5109271;28;20210;-78
2021/01/28 00:27:43;;;;;;;19.33;12.57;;;-0.90;96.60;;;;;;5109790;28;20176;-78
2021/01/28 00:30:16;;;;;;;21.23;13.15;;;-0.90;96.60;;;;;;5110012;28;20176;-78
2021/01/28 00:32:41;;;;;;;17.73;12.63;;;-1.00;96.70;;;;;;5109279;28;20198;-78
2021/01/28 00:35:08;;;;;;;19.90;12.87;;;-0.90;96.60;;;;;;5109588;28;20585;-78
2021/01/28 00:37:34;;;;;;;20.42;12.13;;;-0.90;96.50;;;;;;5109543;28;20317;-78
2021/01/28 00:40:00;;;;;;;19.97;13.23;;;-0.90;96.60;;;;;;5107039;28;20263;-78
2021/01/28 00:42:25;;;;;;;18.33;12.90;;;-0.90;96.30;;;;;;5108866;28;20423;-78
2021/01/28 00:44:51;;;;;;;21.63;13.77;;;-0.90;96.30;;;;;;5109464;28;20203;-78
2021/01/28 00:47:17;;;;;;;18.97;13.50;;;-0.90;96.30;;;;;;5109363;28;20213;-78
2021/01/28 00:49:42;;;;;;;18.07;12.10;;;-0.90;96.40;;;;;;5110170;28;20483;-78
2021/01/28 00:52:08;;;;;;;18.60;13.00;;;-0.80;96.20;;;;;;5109543;28;20175;-78
2021/01/28 00:54:34;;;;;;;22.03;14.20;;;-0.80;96.10;;;;;;5108970;28;20187;-78
2021/01/28 00:56:59;;;;;;;17.90;13.07;;;-0.90;96.10;;;;;;5105614;28;20234;-78
2021/01/28 00:59:25;;;;;;;21.67;13.00;;;-0.90;96.10;;;;;;5109157;28;20180;-78
2021/01/28 01:01:51;;;;;;;21.60;13.27;;;-0.90;96.30;;;;;;5109202;28;20207;-78
2021/01/28 01:04:17;;;;;;;21.80;13.83;;;-0.90;96.30;;;;;;5107958;28;20203;-78
2021/01/28 01:06:42;;;;;;;17.57;12.60;;;-1.00;96.30;;;;;;5109275;28;20184;-79
2021/01/28 01:09:08;;;;;;;21.70;14.10;;;-1.00;96.30;;;;;;5108874;28;20172;-78
2021/01/28 01:11:34;;;;;;;18.33;13.70;;;-1.00;96.20;;;;;;5107513;28;20188;-78
2021/01/28 01:13:59;;;;;;;22.40;13.70;;;-1.10;96.30;;;;;;5107641;28;20172;-78
2021/01/28 01:16:25;;;;;;;18.37;13.57;;;-1.10;96.40;;;;;;5108562;28;20671;-78
2021/01/28 01:18:51;;;;;;;25.97;14.77;;;-1.10;96.70;;;;;;5108947;28;20235;-78
2021/01/28 01:21:16;;;;;;;21.60;13.53;;;-1.10;96.50;;;;;;5107576;28;20270;-78
2021/01/28 01:23:42;;;;;;;19.17;14.30;;;-1.10;96.70;;;;;;5108430;28;20172;-78
2021/01/28 01:26:08;;;;;;;22.93;14.80;;;-1.10;96.70;;;;;;5108270;28;20242;-78
2021/01/28 01:28:34;;;;;;;24.10;16.93;;;-1.20;96.60;;;;;;5108760;28;20463;-78
2021/01/28 01:31:00;;;;;;;25.80;14.50;;;-1.20;96.40;;;;;;5106306;28;20403;-78
2021/01/28 01:33:26;;;;;;;20.40;13.93;;;-1.20;96.60;;;;;;5106781;28;20325;-78
2021/01/28 01:35:52;;;;;;;22.17;12.48;;;-1.20;96.60;;;;;;5108529;28;20806;-78
2021/01/28 01:38:18;;;;;;;19.67;13.60;;;-1.30;96.80;;;;;;5107037;28;20183;-78
2021/01/28 01:40:50;;;;;;;22.80;13.95;;;-1.30;96.60;;;;;;5108294;28;20201;-79
2021/01/28 01:43:16;;;;;;;21.23;14.48;;;-1.30;96.50;;;;;;5108944;28;20171;-79
2021/01/28 01:45:46;;;;;;;21.75;13.85;;;-1.30;96.60;;;;;;5107161;28;20478;-79
2021/01/28 01:48:24;;;;;;;19.85;13.85;;;-1.40;96.60;;;;;;5107070;28;20196;-78
2021/01/28 01:51:16;;;;;;;18.90;12.63;;;-1.30;96.60;;;;;;5108171;28;20171;-78
2021/01/28 01:54:01;;;;;;;22.42;14.82;;;-1.30;96.80;;;;;;5106858;28;20191;-79
2021/01/28 01:56:32;;;;;;;17.27;12.40;;;-1.30;96.60;;;;;;5106258;28;20250;-79
2021/01/28 01:59:00;;;;;;;19.38;12.70;;;-1.30;96.60;;;;;;5107719;28;20167;-79
2021/01/28 02:01:28;;;;;;;21.92;13.60;;;-1.30;96.80;;;;;;5107209;28;20183;-78
2021/01/28 02:03:55;;;;;;;18.35;12.43;;;-1.30;96.60;;;;;;5108210;28;20180;-78
2021/01/28 02:06:24;;;;;;;17.98;12.98;;;-1.40;96.60;;;;;;5108234;28;20765;-78
2021/01/28 02:08:52;;;;;;;21.50;14.05;;;-1.30;96.90;;;;;;5106850;28;20183;-78
2021/01/28 02:11:18;;;;;;;20.70;14.10;;;-1.40;96.70;;;;;;5107416;28;20541;-78
2021/01/28 02:13:46;;;;;;;22.08;13.75;;;-1.50;96.90;;;;;;5108012;28;20180;-78
2021/01/28 02:16:14;;;;;;;16.85;11.43;;;-1.50;97.00;;;;;;5106421;28;20176;-78
2021/01/28 02:18:43;;;;;;;21.02;13.52;;;-1.50;97.20;;;;;;5106775;28;20171;-78
2021/01/28 02:21:22;;;;;;;22.75;14.35;;;-1.40;96.80;;;;;;5106244;28;20216;-78
2021/01/28 02:23:48;;;;;;;22.25;14.50;;;-1.40;97.00;;;;;;5106263;28;20274;-78
2021/01/28 02:26:13;;;;;;;19.60;13.07;;;-1.40;97.20;;;;;;5107806;28;20352;-79
2021/01/28 02:28:39;;;;;;;19.87;14.83;;;-1.40;96.90;;;;;;5106041;28;20620;-79
2021/01/28 02:31:07;;;;;;;21.40;13.97;;;-1.30;96.80;;;;;;5107587;28;20427;-78
2021/01/28 02:33:51;;;;;;;27.33;14.50;;;-1.30;97.00;;;;;;5107357;28;20648;-78
2021/01/28 02:36:17;;;;;;;20.52;13.50;;;-1.40;96.80;;;;;;5106385;28;20191;-79
2021/01/28 02:38:43;;;;;;;21.92;13.75;;;-1.50;97.00;;;;;;5106366;28;20172;-79
2021/01/28 02:41:11;;;;;;;22.10;13.80;;;-1.50;97.00;;;;;;5106393;28;20199;-79
2021/01/28 02:43:37;;;;;;;19.52;12.85;;;-1.50;97.00;;;;;;5107351;28;20210;-78
2021/01/28 02:46:10;;;;;;;24.27;14.33;;;-1.50;97.00;;;;;;5106748;28;20741;-78
2021/01/28 02:48:37;;;;;;;19.95;13.20;;;-1.60;97.10;;;;;;5107001;28;20156;-78
2021/01/28 02:51:04;;;;;;;18.40;13.43;;;-1.60;97.20;;;;;;5106775;28;20311;-78
2021/01/28 02:53:43;;;;;;;19.10;13.23;;;-1.60;97.20;;;;;;5107037;28;20225;-79
2021/01/28 02:56:09;;;;;;;18.58;13.27;;;-1.60;97.20;;;;;;5106738;28;20223;-79
2021/01/28 02:58:35;;;;;;;20.45;13.40;;;-1.60;97.20;;;;;;5105289;28;20176;-78
2021/01/28 03:01:01;;;;;;;24.13;13.40;;;-1.60;97.30;;;;;;5105759;28;20197;-79
2021/01/28 03:03:27;;;;;;;22.50;14.07;;;-1.70;97.40;;;;;;5106769;28;20524;-79
2021/01/28 03:05:53;;;;;;;18.88;13.50;;;-1.60;97.30;;;;;;5105490;28;20457;-78
2021/01/28 03:08:20;;;;;;;21.03;13.23;;;-1.60;97.20;;;;;;5104575;28;20176;-78
2021/01/28 03:10:46;;;;;;;21.17;13.30;;;-1.60;97.10;;;;;;5106955;28;20215;-79
2021/01/28 03:13:13;;;;;;;18.00;13.10;;;-1.60;97.30;;;;;;5107764;28;20573;-78
2021/01/28 03:15:39;;;;;;;18.63;12.93;;;-1.60;97.40;;;;;;5105767;28;20191;-78
2021/01/28 03:18:06;;;;;;;19.30;13.83;;;-1.60;97.40;;;;;;5105509;28;20251;-78
2021/01/28 03:20:32;;;;;;;16.60;13.13;;;-1.70;97.60;;;;;;5104887;28;20527;-78
2021/01/28 03:22:58;;;;;;;19.63;12.75;;;-1.60;97.60;;;;;;5105290;28;20290;-78
2021/01/28 03:25:25;;;;;;;20.52;12.75;;;-1.70;97.50;;;;;;5104150;28;20710;-78
2021/01/28 03:27:52;;;;;;;20.88;13.48;;;-1.70;97.50;;;;;;5106487;28;20518;-78
2021/01/28 03:30:25;;;;;;;19.00;12.68;;;-1.70;97.60;;;;;;5106750;28;20195;-79
2021/01/28 03:32:52;;;;;;;17.88;12.13;;;-1.70;97.80;;;;;;5106683;28;20621;-78
2021/01/28 03:35:20;;;;;;;21.73;15.18;;;-1.70;97.80;;;;;;5106363;28;20178;-79
2021/01/28 03:37:46;;;;;;;21.42;13.07;;;-1.80;97.80;;;;;;5106276;28;20233;-79
2021/01/28 03:40:13;;;;;;;19.77;12.80;;;-1.70;97.70;;;;;;5104008;28;20636;-78
2021/01/28 03:42:39;;;;;;;18.08;12.13;;;-1.70;97.80;;;;;;5106051;28;20198;-78
2021/01/28 03:45:06;;;;;;;19.50;12.80;;;-1.70;97.70;;;;;;5105434;28;20264;-78
2021/01/28 03:47:31;;;;;;;18.60;13.70;;;-1.70;98.20;;;;;;5106441;28;20172;-78
2021/01/28 03:49:57;;;;;;;18.17;12.90;;;-1.70;97.70;;;;;;5105443;28;20263;-78
2021/01/28 03:52:23;;;;;;;23.10;15.23;;;-1.70;97.70;;;;;;5106012;28;20176;-78
2021/01/28 03:54:48;;;;;;;23.77;14.90;;;-1.70;97.90;;;;;;5106366;28;20636;-79
2021/01/28 03:57:14;;;;;;;24.67;15.87;;;-1.60;97.80;;;;;;5105638;28;20601;-79
2021/01/28 03:59:40;;;;;;;22.67;15.77;;;-1.50;97.80;;;;;;5105003;28;20187;-79
2021/01/28 04:02:05;;;;;;;26.13;16.87;;;-1.60;97.60;;;;;;5106525;28;20595;-78
2021/01/28 04:04:31;;;;;;;27.50;18.30;;;-1.60;97.80;;;;;;5106021;28;20272;-78
2021/01/28 04:06:57;;;;;;;24.67;16.53;;;-1.60;98.10;;;;;;5106570;28;20208;-78
2021/01/28 04:09:23;;;;;;;29.57;18.03;;;-1.50;98.00;;;;;;5106093;28;20251;-78
2021/01/28 04:11:49;;;;;;;27.37;15.80;;;-1.60;97.70;;;;;;5106075;28;20236;-78
2021/01/28 04:14:14;;;;;;;21.17;14.63;;;-1.60;97.60;;;;;;5105726;28;20254;-78
2021/01/28 04:16:40;;;;;;;20.07;13.17;;;-1.60;97.90;;;;;;5106112;28;20259;-78
2021/01/28 04:19:06;;;;;;;19.73;14.53;;;-1.60;97.70;;;;;;5106240;28;20168;-79
2021/01/28 04:21:31;;;;;;;23.53;14.57;;;-1.60;97.60;;;;;;5106314;28;20610;-78
2021/01/28 04:23:57;;;;;;;21.30;13.33;;;-1.60;97.60;;;;;;5105735;28;20542;-78
2021/01/28 04:26:24;;;;;;;19.73;12.70;;;-1.60;97.60;;;;;;5104634;28;20703;-78
2021/01/28 04:28:49;;;;;;;23.05;12.98;;;-1.60;97.50;;;;;;5105217;28;20402;-78
2021/01/28 04:31:15;;;;;;;18.70;13.23;;;-1.70;97.80;;;;;;5106303;28;20179;-78
2021/01/28 04:33:41;;;;;;;16.97;11.53;;;-1.70;97.90;;;;;;5108769;28;20171;-78
2021/01/28 04:36:06;;;;;;;20.73;13.50;;;-1.70;97.90;;;;;;5109279;28;20187;-78
2021/01/28 04:38:32;;;;;;;17.97;12.33;;;-1.70;97.90;;;;;;5107703;28;20175;-78
2021/01/28 04:41:24;;;;;;;17.75;13.27;;;-1.70;97.90;;;;;;5109492;28;20180;-78
2021/01/28 04:43:52;;;;;;;21.95;13.35;;;-1.70;97.90;;;;;;5109339;28;20225;-78
2021/01/28 04:46:37;;;;;;;20.25;12.57;;;-1.70;98.00;;;;;;5108847;28;20946;-79
2021/01/28 04:49:09;;;;;;;19.65;12.75;;;-1.70;98.30;;;;;;5108054;28;20579;-78
2021/01/28 04:51:35;;;;;;;20.58;13.13;;;-1.50;97.90;;;;;;5109893;28;20184;-78
2021/01/28 04:54:13;;;;;;;18.55;12.07;;;-1.50;97.60;;;;;;5109570;28;20182;-79
2021/01/28 04:56:39;;;;;;;19.65;12.50;;;-1.50;98.00;;;;;;5108979;28;20326;-78
2021/01/28 04:59:14;;;;;;;21.70;12.40;;;-1.50;98.00;;;;;;5109644;28;20290;-78
2021/01/28 05:01:40;;;;;;;18.92;12.73;;;-1.40;98.20;;;;;;5107998;28;20552;-78
2021/01/28 05:04:10;;;;;;;17.80;11.93;;;-1.40;98.00;;;;;;5109120;28;20176;-78
2021/01/28 05:06:35;;;;;;;21.85;14.35;;;-1.40;98.00;;;;;;5107839;28;20920;-78
2021/01/28 05:09:02;;;;;;;21.07;12.67;;;-1.40;97.90;;;;;;5108783;28;20172;-78
2021/01/28 05:11:31;;;;;;;22.38;12.65;;;-1.30;98.20;;;;;;5109322;28;20180;-79
2021/01/28 05:14:18;;;;;;;21.55;14.15;;;-1.30;97.80;;;;;;5109046;28;20175;-78
2021/01/28 05:16:47;;;;;;;19.27;13.27;;;-1.30;97.60;;;;;;5108833;28;20203;-78
2021/01/28 05:19:31;;;;;;;22.73;14.40;;;-1.30;97.90;;;;;;5108106;28;20588;-79
2021/01/28 05:22:37;;;;;;;25.48;14.48;;;-1.30;98.00;;;;;;5107825;28;20183;-78
2021/01/28 05:25:26;;;;;;;24.08;15.50;;;-1.30;97.90;;;;;;5107570;28;20206;-78
2021/01/28 05:27:52;;;;;;;27.42;15.43;;;-1.30;97.60;;;;;;5107489;28;20670;-78
2021/01/28 05:30:34;;;;;;;32.50;16.77;;;-1.30;97.90;;;;;;5108579;27;20164;-78
2021/01/28 05:33:00;;;;;;;22.90;14.82;;;-1.30;98.10;;;;;;5107742;28;20416;-79
2021/01/28 05:35:28;;;;;;;32.77;19.50;;;-1.40;97.90;;;;;;5107627;28;20202;-79
2021/01/28 05:38:32;;;;;;;32.42;18.13;;;-1.40;98.20;;;;;;5108309;28;20188;-78
2021/01/28 05:41:00;;;;;;;31.63;18.15;;;-1.30;98.30;;;;;;5102850;28;20362;-78
2021/01/28 05:43:29;;;;;;;37.45;18.80;;;-1.40;98.30;;;;;;5087668;28;20602;-78
2021/01/28 05:46:11;;;;;;;34.92;16.00;;;-1.30;98.20;;;;;;5088225;28;20215;-78
2021/01/28 05:48:37;;;;;;;25.00;15.07;;;-0.20;97.10;;;;;;5087663;28;20199;-78
2021/01/28 05:51:20;;;;;;;27.43;15.60;;;0.50;95.60;;;;;;5087569;28;20295;-79
2021/01/28 05:53:57;;;;;;;24.55;15.23;;;1.10;94.20;;;;;;5088363;28;20371;-78
2021/01/28 05:56:23;;;;;;;30.85;15.43;;;1.40;94.60;;;;;;5087188;28;20280;-78
2021/01/28 05:59:08;;;;;;;23.97;16.00;;;1.80;94.00;;;;;;5087977;28;20260;-78
2021/01/28 06:01:55;;;;;;;23.85;14.48;;;2.00;93.30;;;;;;5087872;28;20554;-79
2021/01/28 06:04:29;;;;;;;22.75;15.77;;;2.10;93.50;;;;;;5087952;28;20620;-79
2021/01/28 06:07:21;;;;;;;27.23;17.05;;;0.60;93.20;;;;;;5086652;28;20180;-78
2021/01/28 06:10:29;;;;;;;26.77;18.45;;;-0.40;94.90;;;;;;5087218;28;20163;-79
2021/01/28 06:13:06;;;;;;;25.73;18.13;;;-0.90;97.00;;;;;;5089492;28;20629;-79
2021/01/28 06:15:38;;;;;;;31.90;20.13;;;-1.00;97.40;;;;;;5087719;28;20180;-79
2021/01/28 06:18:32;;;;;;;28.45;19.00;;;-1.20;97.20;;;;;;5087098;28;20184;-79
2021/01/28 06:21:19;;;;;;;27.75;18.80;;;-1.40;98.30;;;;;;5087638;28;20184;-78
2021/01/28 06:23:54;;;;;;;31.67;20.45;;;-1.50;99.20;;;;;;5086675;28;20200;-79
2021/01/28 06:26:51;;;;;;;29.45;20.83;;;-1.60;98.50;;;;;;5086967;28;20294;-78
2021/01/28 06:29:36;;;;;;;30.80;19.38;;;-1.60;99.00;;;;;;5067843;28;20192;-78
2021/01/28 06:32:05;;;;;;;27.35;17.10;;;-1.70;99.50;;;;;;5087437;28;20172;-79
2021/01/28 06:35:08;;;;;;;37.63;20.88;;;-1.70;99.00;;;;;;5089807;28;20176;-79
2021/01/28 06:37:42;;;;;;;66.07;38.38;;;-1.70;99.60;;;;;;5106972;28;20643;-79
2021/01/28 06:40:17;;;;;;;35.78;22.48;;;-1.70;99.70;;;;;;5106205;28;20190;-79
2021/01/28 06:43:04;;;;;;;41.45;27.23;;;-1.60;99.40;;;;;;5107424;28;20661;-79
2021/01/28 06:45:37;;;;;;;35.85;22.17;;;-1.70;99.70;;;;;;5107107;28;20686;-79
2021/01/28 06:48:12;;;;;;;46.47;29.15;;;-1.70;99.80;;;;;;5107007;28;20186;-79
2021/01/28 06:50:51;;;;;;;42.33;28.90;;;-1.60;99.30;;;;;;5105580;28;20541;-79
2021/01/28 06:53:24;;;;;;;53.13;35.38;;;-1.50;99.10;;;;;;5105833;28;20164;-79
2021/01/28 06:56:25;;;;;;;59.10;34.72;;;-1.60;99.20;;;;;;5104864;27;20187;-79
2021/01/28 06:58:59;;;;;;;48.08;31.52;;;-1.50;99.40;;;;;;5107373;28;20187;-79
2021/01/28 07:01:36;;;;;;;50.88;34.58;;;-1.50;99.30;;;;;;5107051;28;20194;-79
2021/01/28 07:04:16;;;;;;;46.92;35.60;;;-1.30;99.70;;;;;;5106006;28;20290;-79
2021/01/28 07:07:04;;;;;;;65.85;40.47;;;-1.10;99.20;;;;;;5106629;28;20180;-80
2021/01/28 07:10:04;;;;;;;53.00;33.90;;;-1.10;99.20;;;;;;5106308;28;20204;-79
2021/01/28 07:12:50;;;;;;;53.13;32.40;;;-0.90;99.10;;;;;;5106815;28;20224;-81
2021/01/28 07:15:16;;;;;;;36.90;25.10;;;-1.00;98.90;;;;;;5105628;27;20266;-79
2021/01/28 07:17:49;;;;;;;39.97;25.33;;;-0.80;99.20;;;;;;5112940;28;20190;-80
2021/01/28 07:20:28;;;;;;;46.55;31.67;;;-0.70;98.60;;;;;;5104491;28;20194;-80
2021/01/28 07:23:12;;;;;;;67.85;49.20;;;-0.50;98.30;;;;;;5110744;28;20527;-79
2021/01/28 07:25:38;;;;;;;50.05;36.25;;;-0.30;98.50;;;;;;5094978;28;20576;-79
2021/01/28 07:28:19;;;;;;;45.70;30.70;;;-0.10;97.80;;;;;;5110175;28;20194;-79
2021/01/28 07:31:12;;;;;;;39.85;29.27;;;0.10;97.10;;;;;;5108459;28;20419;-80
2021/01/28 07:33:41;;;;;;;26.63;20.10;;;0.50;97.20;;;;;;5122798;28;20282;-80
2021/01/28 07:36:13;;;;;;;36.75;20.98;;;0.70;96.50;;;;;;5117040;27;20195;-78
2021/01/28 07:38:49;;;;;;;26.90;19.13;;;0.90;96.60;;;;;;5102326;28;20222;-77
2021/01/28 07:41:15;;;;;;;25.85;19.33;;;1.20;95.70;;;;;;5099340;28;20190;-77
2021/01/28 07:43:44;;;;;;;25.17;17.70;;;1.40;95.60;;;;;;5098808;28;20183;-78
2021/01/28 07:46:16;;;;;;;23.83;17.10;;;1.50;95.50;;;;;;4449054;27;22242;-78
2021/01/28 07:48:43;;;;;;;27.77;16.10;;;1.50;94.90;;;;;;4112164;28;21463;-79
2021/01/28 07:51:35;;;;;;;30.58;19.80;;;1.60;94.90;;;;;;4113970;28;21979;-78
2021/01/28 07:54:02;;;;;;;35.58;27.52;;;1.70;95.10;;;;;;4138973;28;21325;-78
2021/01/28 07:56:40;;;;;;;38.35;28.73;;;1.70;95.00;;;;;;4164345;28;22391;-78
2021/01/28 07:59:11;;;;;;;24.65;16.25;;;1.70;94.90;;;;;;4075900;28;21439;-78
2021/01/28 08:01:40;;;;;;;46.90;29.23;;;1.80;94.90;;;;;;4131842;28;21366;-78
2021/01/28 08:04:31;;;;;;;31.83;21.80;;;1.80;95.40;;;;;;4732240;28;20180;-78
2021/01/28 08:06:59;;;;;;;56.35;37.75;;;1.80;94.70;;;;;;5107800;28;20184;-78
2021/01/28 08:09:24;;;;;;;30.90;19.77;;;1.70;95.60;;;;;;5109166;28;20244;-78
2021/01/28 08:11:55;;;;;;;50.53;34.73;;;1.70;96.10;;;;;;5108630;28;20188;-79
2021/01/28 08:14:23;;;;;;;37.25;24.48;;;1.60;95.60;;;;;;5109026;28;20187;-79
2021/01/28 08:16:54;;;;;;;49.25;37.97;;;1.70;96.00;;;;;;5107527;28;20509;-80
2021/01/28 08:19:29;;;;;;;72.80;52.38;;;1.60;96.00;;;;;;5108663;28;20211;-80
2021/01/28 08:22:11;;;;;;;34.80;24.15;;;1.50;96.10;;;;;;5115867;27;20188;-80
2021/01/28 08:24:39;;;;;;;33.80;25.27;;;1.30;96.80;;;;;;5110040;27;20231;-80
2021/01/28 08:27:40;;;;;;;64.70;44.25;;;1.40;96.70;;;;;;5104639;28;20188;-80
2021/01/28 08:30:06;;;;;;;31.40;23.85;;;1.40;97.00;;;;;;5068353;28;20179;-78
2021/01/28 08:32:33;;;;;;;36.03;26.30;;;1.30;96.70;;;;;;5104032;28;20219;-78
2021/01/28 08:35:01;;;;;;;36.20;24.65;;;1.10;97.40;;;;;;5110164;27;20765;-78
2021/01/28 08:37:30;;;;;;;30.50;22.83;;;1.20;97.60;;;;;;5089222;28;20181;-79
2021/01/28 08:39:56;;;;;;;34.03;21.98;;;1.20;97.70;;;;;;5090009;28;20621;-79
2021/01/28 08:42:25;;;;;;;31.50;23.00;;;1.20;97.60;;;;;;5100122;27;20195;-79
2021/01/28 08:45:21;;;;;;;34.83;26.40;;;1.30;97.70;;;;;;5109116;27;20437;-79
2021/01/28 08:47:59;;;;;;;32.00;23.60;;;1.20;97.90;;;;;;5110922;27;20180;-79
2021/01/28 08:50:27;;;;;;;37.10;25.35;;;1.20;98.00;;;;;;5116368;27;20191;-79
2021/01/28 08:53:03;;;;;;;25.70;19.70;;;1.30;97.70;;;;;;5110450;27;20208;-79
2021/01/28 08:55:35;;;;;;;40.45;26.50;;;1.30;97.70;;;;;;5107029;27;20188;-79
2021/01/28 08:58:14;;;;;;;33.35;23.63;;;1.30;97.60;;;;;;5123154;27;20219;-78
2021/01/28 09:00:48;;;;;;;31.58;23.85;;;1.30;97.70;;;;;;5102360;28;20578;-78
2021/01/28 09:03:23;;;;;;;33.10;26.52;;;1.40;98.00;;;;;;5107628;28;20164;-78
2021/01/28 09:05:50;;;;;;;24.10;18.23;;;1.30;97.90;;;;;;5094815;28;20268;-79
2021/01/28 09:08:24;;;;;;;27.90;23.65;;;1.40;97.70;;;;;;5108188;27;20172;-79
2021/01/28 09:10:49;;;;;;;23.65;17.52;;;1.40;97.90;;;;;;5106846;27;20180;-78
2021/01/28 09:13:31;;;;;;;22.07;17.30;;;1.40;97.80;;;;;;5102002;28;20552;-77
2021/01/28 09:16:10;;;;;;;24.08;17.40;;;1.50;97.90;;;;;;5106996;28;20198;-78
2021/01/28 09:18:46;;;;;;;30.20;23.15;;;1.50;98.10;;;;;;5104261;28;20475;-78
2021/01/28 09:21:21;;;;;;;32.88;21.48;;;1.40;98.30;;;;;;5105475;27;20198;-79
2021/01/28 09:24:00;;;;;;;27.92;19.45;;;1.40;98.20;;;;;;5110332;27;20640;-79
2021/01/28 09:26:30;;;;;;;24.10;15.43;;;1.40;97.90;;;;;;5106206;27;20729;-78
2021/01/28 09:29:30;;;;;;;46.40;27.10;;;1.50;97.90;;;;;;5113016;27;20259;-79
2021/01/28 09:32:08;;;;;;;36.40;26.60;;;1.60;98.00;;;;;;5121949;27;20694;-79
2021/01/28 09:34:34;;;;;;;32.03;22.77;;;1.60;98.00;;;;;;5102447;27;20434;-79
2021/01/28 09:37:15;;;;;;;45.53;32.00;;;1.60;97.90;;;;;;5106446;28;20195;-79
2021/01/28 09:39:45;;;;;;;27.13;19.25;;;1.60;97.80;;;;;;5101776;28;20706;-78
2021/01/28 09:42:30;;;;;;;45.67;35.17;;;1.60;98.00;;;;;;5107686;28;20699;-79
2021/01/28 09:45:10;;;;;;;26.60;19.33;;;1.60;97.80;;;;;;5101868;28;20192;-78
2021/01/28 09:47:36;;;;;;;39.38;28.38;;;1.70;97.70;;;;;;5103192;27;20675;-78
2021/01/28 09:50:11;;;;;;;56.85;41.25;;;1.70;97.90;;;;;;5103515;28;20679;-78
2021/01/28 09:52:48;;;;;;;28.42;17.10;;;1.70;98.20;;;;;;5101728;28;20187;-78
2021/01/28 09:55:22;;;;;;;34.10;21.10;;;1.80;97.70;;;;;;5100207;28;20185;-79
2021/01/28 09:57:49;;;;;;;44.90;31.58;;;1.80;97.60;;;;;;5100892;28;20236;-78
2021/01/28 10:00:17;;;;;;;80.53;54.97;;;1.90;98.00;;;;;;5105196;28;20184;-78
2021/01/28 10:03:05;;;;;;;124.43;80.75;;;1.90;97.40;;;;;;5107193;28;20184;-78
2021/01/28 10:05:33;;;;;;;29.38;21.00;;;1.90;97.60;;;;;;5103782;28;20223;-78
2021/01/28 10:07:59;;;;;;;37.67;26.23;;;1.90;97.50;;;;;;5101594;28;20179;-78
2021/01/28 10:10:28;;;;;;;44.67;29.75;;;1.90;97.90;;;;;;5102748;28;20198;-79
2021/01/28 10:12:57;;;;;;;41.10;31.60;;;1.80;98.10;;;;;;5105340;28;20172;-79
2021/01/28 10:15:26;;;;;;;26.52;19.92;;;1.80;97.80;;;;;;5099754;28;20180;-79
2021/01/28 10:17:53;;;;;;;80.90;50.92;;;1.80;97.30;;;;;;5103308;28;20180;-79
2021/01/28 10:20:20;;;;;;;107.60;73.47;;;1.80;97.10;;;;;;5102211;28;20268;-79
2021/01/28 10:22:46;;;;;;;29.50;19.38;;;1.90;97.10;;;;;;5102246;28;20194;-79
2021/01/28 10:25:15;;;;;;;46.20;34.15;;;1.80;96.90;;;;;;5099646;28;20209;-79
2021/01/28 10:27:42;;;;;;;36.30;26.40;;;1.90;97.40;;;;;;5104693;28;20171;-79
2021/01/28 10:30:09;;;;;;;25.70;19.30;;;2.00;97.10;;;;;;5101546;28;20364;-79
2021/01/28 10:32:35;;;;;;;23.48;17.17;;;2.10;96.80;;;;;;5103895;28;20179;-79
2021/01/28 10:35:02;;;;;;;22.37;17.13;;;2.00;96.70;;;;;;5102881;28;20667;-78
2021/01/28 10:37:27;;;;;;;26.85;20.08;;;2.10;96.70;;;;;;5103770;28;20526;-79
2021/01/28 10:39:53;;;;;;;56.33;40.83;;;2.00;96.90;;;;;;5101067;28;20484;-79
2021/01/28 10:42:29;;;;;;;48.67;31.70;;;2.00;96.90;;;;;;5105731;28;20385;-79
2021/01/28 10:44:54;;;;;;;25.52;19.55;;;2.00;96.40;;;;;;5104177;28;20199;-79
2021/01/28 10:47:20;;;;;;;28.80;19.70;;;2.00;97.00;;;;;;5105219;28;20182;-78
2021/01/28 10:49:46;;;;;;;33.17;25.70;;;2.20;96.80;;;;;;5104473;27;20195;-78
2021/01/28 10:52:11;;;;;;;81.20;54.07;;;2.30;96.60;;;;;;5105307;27;20180;-78
2021/01/28 10:54:37;;;;;;;35.40;25.33;;;2.50;96.30;;;;;;5106098;27;20178;-78
2021/01/28 10:57:03;;;;;;;51.93;32.90;;;2.50;96.00;;;;;;5102744;27;20792;-79
2021/01/28 10:59:29;;;;;;;33.70;25.05;;;2.70;96.20;;;;;;5111629;27;20199;-78
2021/01/28 11:01:55;;;;;;;33.03;26.30;;;2.70;95.50;;;;;;5112162;28;20175;-78
2021/01/28 11:04:21;;;;;;;32.10;23.43;;;2.70;95.10;;;;;;5111625;28;20686;-78
2021/01/28 11:06:46;;;;;;;33.77;23.47;;;2.90;95.60;;;;;;5103404;28;20493;-78
2021/01/28 11:09:12;;;;;;;30.53;22.40;;;3.00;94.80;;;;;;5111166;28;20184;-78
2021/01/28 11:11:38;;;;;;;25.33;18.63;;;2.90;94.90;;;;;;5107124;28;20175;-78
2021/01/28 11:14:03;;;;;;;33.40;24.57;;;3.00;95.00;;;;;;5110218;28;20180;-78
2021/01/28 11:16:33;;;;;;;34.90;25.60;;;3.20;95.00;;;;;;5107903;28;20184;-78
2021/01/28 11:18:59;;;;;;;36.60;25.33;;;3.40;95.00;;;;;;5109991;28;20184;-78
2021/01/28 11:21:25;;;;;;;35.77;25.57;;;3.10;94.30;;;;;;5106961;28;20187;-78
2021/01/28 11:23:50;;;;;;;35.27;24.43;;;3.00;94.90;;;;;;5093772;28;20286;-78
2021/01/28 11:26:16;;;;;;;38.33;24.53;;;2.90;95.20;;;;;;5105976;28;20655;-79
2021/01/28 11:28:43;;;;;;;34.90;25.40;;;2.80;95.20;;;;;;5116383;27;20204;-79
2021/01/28 11:31:09;;;;;;;42.90;30.00;;;3.00;95.40;;;;;;5105886;28;21304;-80
2021/01/28 11:33:34;;;;;;;39.00;27.30;;;3.00;95.30;;;;;;5110319;28;20218;-79
2021/01/28 11:36:00;;;;;;;44.93;34.53;;;3.00;95.20;;;;;;5104320;28;20190;-79
2021/01/28 11:38:26;;;;;;;40.88;31.92;;;3.10;95.10;;;;;;5106967;28;20221;-79
2021/01/28 11:40:52;;;;;;;42.07;26.60;;;3.30;95.50;;;;;;5100940;28;20291;-79
2021/01/28 11:43:18;;;;;;;45.00;32.47;;;3.60;94.20;;;;;;5100730;27;20192;-80
2021/01/28 11:45:44;;;;;;;37.30;27.47;;;3.50;94.70;;;;;;5106182;27;20472;-79
2021/01/28 11:48:10;;;;;;;40.30;27.73;;;3.40;94.50;;;;;;5106680;27;20401;-79
2021/01/28 11:50:36;;;;;;;73.13;43.35;;;3.30;94.60;;;;;;5104948;28;20196;-79
2021/01/28 11:53:02;;;;;;;45.30;30.50;;;3.60;94.30;;;;;;5108185;27;20700;-79
2021/01/28 11:55:29;;;;;;;46.90;31.27;;;3.60;94.30;;;;;;5109733;28;20653;-79
2021/01/28 11:57:55;;;;;;;38.55;24.33;;;3.70;94.90;;;;;;5105847;28;20647;-79
2021/01/28 12:00:23;;;;;;;33.03;23.30;;;3.60;93.70;;;;;;5103575;28;20625;-79
2021/01/28 12:02:49;;;;;;;34.90;24.67;;;3.50;94.00;;;;;;5111452;27;20175;-78
2021/01/28 12:05:16;;;;;;;32.70;23.23;;;3.40;94.00;;;;;;5103896;28;20654;-78
2021/01/28 12:07:42;;;;;;;49.38;34.67;;;3.50;94.10;;;;;;5097234;27;20175;-78
2021/01/28 12:10:10;;;;;;;41.08;25.63;;;3.70;94.10;;;;;;5108223;27;20302;-78
2021/01/28 12:12:37;;;;;;;44.90;32.92;;;3.50;94.20;;;;;;5106313;28;20191;-78
2021/01/28 12:15:07;;;;;;;35.75;27.70;;;3.70;94.40;;;;;;5107161;28;20204;-78
2021/01/28 12:17:33;;;;;;;40.17;30.20;;;3.70;94.10;;;;;;5107988;28;20179;-78
2021/01/28 12:19:58;;;;;;;38.72;28.63;;;3.60;94.00;;;;;;5103054;28;20195;-78
2021/01/28 12:22:24;;;;;;;39.30;28.93;;;3.60;94.10;;;;;;5110041;27;20543;-78
2021/01/28 12:24:50;;;;;;;33.37;25.10;;;3.80;94.00;;;;;;5108385;27;20216;-78
2021/01/28 12:27:16;;;;;;;35.07;28.83;;;3.70;93.70;;;;;;5108029;28;20192;-78
2021/01/28 12:29:41;;;;;;;36.95;27.40;;;3.60;94.00;;;;;;5105738;28;20184;-78
2021/01/28 12:32:08;;;;;;;41.00;30.93;;;3.70;94.20;;;;;;5088708;28;20196;-78
2021/01/28 12:34:34;;;;;;;34.72;25.45;;;3.80;94.00;;;;;;5106422;28;20225;-78
2021/01/28 12:36:59;;;;;;;31.50;23.73;;;3.60;93.80;;;;;;5106406;28;20962;-78
2021/01/28 12:39:25;;;;;;;45.43;32.60;;;3.70;94.10;;;;;;5107543;28;20188;-78
2021/01/28 12:41:51;;;;;;;31.40;24.03;;;3.80;93.40;;;;;;5106057;27;20235;-79
2021/01/28 12:44:17;;;;;;;39.03;28.33;;;3.80;93.60;;;;;;5108243;28;20282;-79
2021/01/28 12:46:42;;;;;;;37.13;28.50;;;4.00;94.00;;;;;;5109230;28;20234;-79
2021/01/28 12:49:08;;;;;;;33.87;26.43;;;4.10;93.70;;;;;;5099986;28;21031;-78